createdAt,value
2023-03-08T00:00:46.052Z,10.10
2023-03-08T00:03:48.246Z,9.87
2023-03-08T00:06:50.183Z,10.40
2023-03-08T00:09:52.310Z,11.10
2023-03-08T00:12:54.174Z,10.43
2023-03-08T00:16:00.897Z,11.17
2023-03-08T00:19:02.858Z,11.03
2023-03-08T00:22:05.291Z,10.70
2023-03-08T00:25:09.195Z,11.00
2023-03-08T00:28:11.238Z,10.87
2023-03-08T00:31:13.742Z,11.77
2023-03-08T00:34:16.014Z,11.27
2023-03-08T00:37:17.938Z,11.87
2023-03-08T00:40:19.955Z,11.30
2023-03-08T00:43:21.937Z,10.70
2023-03-08T00:46:25.931Z,11.87
2023-03-08T00:49:27.896Z,11.60
2023-03-08T00:52:30.046Z,11.20
2023-03-08T00:55:32.095Z,10.73
2023-03-08T00:58:34.286Z,11.80
2023-03-08T01:01:36.291Z,11.00
2023-03-08T01:04:38.205Z,10.73
2023-03-08T01:07:40.822Z,11.73
2023-03-08T01:10:54.775Z,11.87
2023-03-08T01:13:57.503Z,11.90
2023-03-08T01:17:00.227Z,11.80
2023-03-08T01:20:02.163Z,11.43
2023-03-08T01:23:04.656Z,12.03
2023-03-08T01:26:09.655Z,12.40
2023-03-08T01:29:11.645Z,12.33
2023-03-08T01:32:13.680Z,12.13
2023-03-08T01:35:15.748Z,11.80
2023-03-08T01:38:17.655Z,11.53
2023-03-08T01:41:25.926Z,11.20
2023-03-08T01:44:27.949Z,12.30
2023-03-08T01:47:31.781Z,11.03
2023-03-08T01:50:34.030Z,12.93
2023-03-08T01:53:38.125Z,11.83
2023-03-08T01:56:41.466Z,10.40
2023-03-08T01:59:44.438Z,11.60
2023-03-08T02:03:02.642Z,10.93
2023-03-08T02:06:04.887Z,10.57
2023-03-08T02:09:07.646Z,10.20
2023-03-08T02:12:12.406Z,10.70
2023-03-08T02:15:17.359Z,11.03
2023-03-08T02:18:19.749Z,10.13
2023-03-08T02:21:22.440Z,11.00
2023-03-08T02:24:25.688Z,11.93
2023-03-08T02:27:27.918Z,10.93
2023-03-08T02:30:37.218Z,9.53
2023-03-08T02:33:39.204Z,10.13
2023-03-08T02:36:41.201Z,9.60
2023-03-08T02:39:43.154Z,10.37
2023-03-08T02:42:45.068Z,10.70
2023-03-08T02:45:47.508Z,11.27
2023-03-08T02:48:54.039Z,12.63
2023-03-08T02:51:56.577Z,10.70
2023-03-08T02:54:58.462Z,11.03
2023-03-08T02:58:01.024Z,11.60
2023-03-08T03:01:03.102Z,10.40
2023-03-08T03:04:05.101Z,11.73
2023-03-08T03:07:06.962Z,9.97
2023-03-08T03:10:12.032Z,11.20
2023-03-08T03:13:14.149Z,10.50
2023-03-08T03:16:17.122Z,11.20
2023-03-08T03:19:19.109Z,12.50
2023-03-08T03:22:22.032Z,11.90
2023-03-08T03:25:24.097Z,10.80
2023-03-08T03:28:26.160Z,11.97
2023-03-08T03:31:28.294Z,12.10
2023-03-08T03:34:31.139Z,12.27
2023-03-08T03:37:35.357Z,12.43
2023-03-08T03:40:37.297Z,12.43
2023-03-08T03:43:39.685Z,12.27
2023-03-08T03:46:41.804Z,13.73
2023-03-08T03:49:46.728Z,11.80
2023-03-08T03:52:48.771Z,10.90
2023-03-08T03:55:51.317Z,11.83
2023-03-08T03:58:54.223Z,11.47
2023-03-08T04:01:56.196Z,11.53
2023-03-08T04:04:58.387Z,12.90
2023-03-08T04:08:00.517Z,12.07
2023-03-08T04:11:02.726Z,11.03
2023-03-08T04:14:05.250Z,13.00
2023-03-08T04:17:08.406Z,12.37
2023-03-08T04:20:11.470Z,11.83
2023-03-08T04:23:13.436Z,12.50
2023-03-08T04:26:15.424Z,12.03
2023-03-08T04:29:17.500Z,12.13
2023-03-08T04:32:19.729Z,12.63
2023-03-08T04:35:23.187Z,12.17
2023-03-08T04:38:25.280Z,12.80
2023-03-08T04:41:27.293Z,12.83
2023-03-08T04:44:29.327Z,12.43
2023-03-08T04:47:31.342Z,12.97
2023-03-08T04:50:33.245Z,13.63
2023-03-08T04:53:36.243Z,13.23
2023-03-08T04:56:38.220Z,14.20
2023-03-08T04:59:40.544Z,13.63
2023-03-08T05:02:42.591Z,12.43
2023-03-08T05:05:46.828Z,13.73
2023-03-08T05:08:48.853Z,13.93
2023-03-08T05:11:51.213Z,12.87
2023-03-08T05:14:53.216Z,13.27
2023-03-08T05:17:55.234Z,13.07
2023-03-08T05:21:06.293Z,12.67
2023-03-08T05:24:08.294Z,12.77
2023-03-08T05:27:12.467Z,12.77
2023-03-08T05:30:14.724Z,12.03
2023-03-08T05:33:19.403Z,11.87
2023-03-08T05:36:21.492Z,12.77
2023-03-08T05:39:23.414Z,13.30
2023-03-08T05:42:25.949Z,12.87
2023-03-08T05:45:27.979Z,12.30
2023-03-08T05:48:31.211Z,12.73
2023-03-08T05:51:33.254Z,13.43
2023-03-08T05:54:36.057Z,13.53
2023-03-08T05:57:38.044Z,13.93
2023-03-08T06:00:39.950Z,12.83
2023-03-08T06:03:42.045Z,12.60
2023-03-08T06:06:44.417Z,12.63
2023-03-08T06:09:46.510Z,13.00
2023-03-08T06:12:48.585Z,11.67
2023-03-08T06:15:55.271Z,12.33
2023-03-08T06:18:57.333Z,12.47
2023-03-08T06:21:59.259Z,12.97
2023-03-08T06:25:01.776Z,11.93
2023-03-08T06:28:03.756Z,12.30
2023-03-08T06:31:05.783Z,12.40
2023-03-08T06:34:09.898Z,11.50
2023-03-08T06:37:12.119Z,12.00
2023-03-08T06:40:14.550Z,10.53
2023-03-08T06:43:16.949Z,11.53
2023-03-08T06:46:19.650Z,12.07
2023-03-08T06:49:22.281Z,11.20
2023-03-08T06:52:24.286Z,12.90
2023-03-08T06:55:26.847Z,11.50
2023-03-08T06:58:31.816Z,11.97
2023-03-08T07:01:34.249Z,12.30
2023-03-08T07:04:36.358Z,12.30
2023-03-08T07:07:39.981Z,11.53
2023-03-08T07:10:41.954Z,11.07
2023-03-08T07:13:43.856Z,10.53
2023-03-08T07:16:45.731Z,10.90
2023-03-08T07:19:47.702Z,11.43
2023-03-08T07:22:49.704Z,11.23
2023-03-08T07:25:51.962Z,11.67
2023-03-08T07:28:54.119Z,10.73
2023-03-08T07:31:56.147Z,11.03
2023-03-08T07:34:58.483Z,11.53
2023-03-08T07:38:00.712Z,12.43
2023-03-08T07:41:02.601Z,11.40
2023-03-08T07:44:04.663Z,11.00
2023-03-08T07:47:07.254Z,12.20
2023-03-08T07:50:10.308Z,11.67
2023-03-08T07:53:12.252Z,11.97
2023-03-08T07:56:14.256Z,10.73
2023-03-08T07:59:16.168Z,11.53
2023-03-08T08:02:21.076Z,11.50
2023-03-08T08:05:23.122Z,11.23
2023-03-08T08:08:28.089Z,12.30
2023-03-08T08:11:30.031Z,10.80
2023-03-08T08:14:44.048Z,11.53
2023-03-08T08:17:45.900Z,11.77
2023-03-08T08:20:48.069Z,10.87
2023-03-08T08:23:49.997Z,10.30
2023-03-08T08:26:52.008Z,11.00
2023-03-08T08:29:53.870Z,10.70
2023-03-08T08:32:56.061Z,10.83
2023-03-08T08:35:58.547Z,11.17
2023-03-08T08:39:00.531Z,10.00
2023-03-08T08:42:02.392Z,11.00
2023-03-08T08:45:04.645Z,10.70
2023-03-08T08:48:07.261Z,9.63
2023-03-08T08:51:11.700Z,10.27
2023-03-08T08:54:13.723Z,10.10
2023-03-08T08:57:15.632Z,9.83
2023-03-08T09:00:20.115Z,10.33
2023-03-08T09:03:21.940Z,10.33
2023-03-08T09:06:25.207Z,9.73
2023-03-08T09:09:27.445Z,9.67
2023-03-08T09:12:30.332Z,9.27
2023-03-08T09:15:32.301Z,9.97
2023-03-08T09:18:35.092Z,9.47
2023-03-08T09:21:36.976Z,9.77
2023-03-08T09:24:39.559Z,9.23
2023-03-08T09:27:42.529Z,9.43
2023-03-08T09:30:44.399Z,9.00
2023-03-08T09:33:49.302Z,9.63
2023-03-08T09:36:51.216Z,9.30
2023-03-08T09:39:53.132Z,9.77
2023-03-08T09:42:59.658Z,8.43
2023-03-08T09:46:01.594Z,9.30
2023-03-08T09:49:05.901Z,8.80
2023-03-08T09:52:15.697Z,9.37
2023-03-08T09:55:30.779Z,9.23
2023-03-08T09:58:47.911Z,8.77
2023-03-08T10:02:21.214Z,9.93
2023-03-08T10:06:11.089Z,8.73
2023-03-08T10:09:25.531Z,8.57
2023-03-08T10:12:43.485Z,10.13
2023-03-08T10:15:51.069Z,9.27
2023-03-08T10:19:01.637Z,9.30
2023-03-08T10:22:13.725Z,8.90
2023-03-08T10:25:15.561Z,8.73
2023-03-08T10:28:22.360Z,8.53
2023-03-08T10:31:24.307Z,9.27
2023-03-08T10:34:31.080Z,8.70
2023-03-08T10:37:33.955Z,8.53
2023-03-08T10:40:35.921Z,9.07
2023-03-08T10:43:50.862Z,8.33
2023-03-08T10:46:53.046Z,8.33
2023-03-08T10:50:16.892Z,7.93
2023-03-08T10:53:20.236Z,8.03
2023-03-08T10:56:29.826Z,9.17
2023-03-08T10:59:33.949Z,8.43
2023-03-08T11:02:35.785Z,8.97
2023-03-08T11:05:39.074Z,8.93
2023-03-08T11:08:54.931Z,9.87
2023-03-08T11:11:58.365Z,9.10
2023-03-08T11:15:00.358Z,8.07
2023-03-08T11:18:15.052Z,9.13
2023-03-08T11:21:25.186Z,8.80
2023-03-08T11:24:57.918Z,7.70
2023-03-08T11:28:11.965Z,7.63
2023-03-08T11:31:20.154Z,7.93
2023-03-08T11:34:39.093Z,7.40
2023-03-08T11:38:00.490Z,7.53
2023-03-08T11:41:24.984Z,8.53
2023-03-08T11:44:41.300Z,9.50
2023-03-08T11:48:07.929Z,8.47
2023-03-08T11:51:18.729Z,9.17
2023-03-08T11:54:37.755Z,9.30
2023-03-08T11:57:45.322Z,9.33
2023-03-08T12:00:48.943Z,9.00
2023-03-08T12:03:55.663Z,9.43
2023-03-08T12:06:58.335Z,10.03
2023-03-08T12:10:06.698Z,9.20
2023-03-08T12:13:35.575Z,9.47
2023-03-08T12:16:47.086Z,9.67
2023-03-08T12:19:50.730Z,9.60
2023-03-08T12:23:01.155Z,9.40
2023-03-08T12:26:40.008Z,9.67
2023-03-08T12:30:09.513Z,9.67
2023-03-08T12:33:14.307Z,8.90
2023-03-08T12:36:19.051Z,9.27
2023-03-08T12:39:30.274Z,10.87
2023-03-08T12:42:38.865Z,9.40
2023-03-08T12:45:43.344Z,10.00
2023-03-08T12:48:45.331Z,9.07
2023-03-08T12:52:06.682Z,9.40
2023-03-08T12:55:31.493Z,9.47
2023-03-08T12:58:35.198Z,8.87
2023-03-08T13:01:39.673Z,9.00
2023-03-08T13:04:42.708Z,9.03
2023-03-08T13:08:06.182Z,9.77
2023-03-08T13:11:15.818Z,9.23
2023-03-08T13:15:08.059Z,10.77
2023-03-08T13:18:09.893Z,8.83
2023-03-08T13:21:18.094Z,9.53
2023-03-08T13:24:32.842Z,9.63
2023-03-08T13:27:47.065Z,8.77
2023-03-08T13:31:01.087Z,9.07
2023-03-08T13:34:06.666Z,9.67
2023-03-08T13:37:31.536Z,14.73
2023-03-08T13:40:34.555Z,12.23
2023-03-08T13:43:36.760Z,10.53
2023-03-08T13:46:42.971Z,11.17
2023-03-08T13:49:46.129Z,10.67
2023-03-08T13:52:48.565Z,10.40
2023-03-08T13:55:53.577Z,10.67
2023-03-08T13:58:58.059Z,9.70
2023-03-08T14:02:00.190Z,8.37
2023-03-08T14:05:02.438Z,8.23
2023-03-08T14:08:06.863Z,8.47
2023-03-08T14:11:19.151Z,9.53
2023-03-08T14:14:29.462Z,9.53
2023-03-08T14:17:34.249Z,9.23
2023-03-08T14:20:36.316Z,8.90
2023-03-08T14:23:41.335Z,9.40
2023-03-08T14:26:54.845Z,8.30
2023-03-08T14:30:16.016Z,9.20
2023-03-08T14:33:17.854Z,8.37
2023-03-08T14:36:20.419Z,8.60
2023-03-08T14:39:24.540Z,8.93
2023-03-08T14:42:41.562Z,7.50
2023-03-08T14:45:52.669Z,7.53
2023-03-08T14:49:03.510Z,8.57
2023-03-08T14:52:06.105Z,7.37
2023-03-08T14:55:24.051Z,7.07
2023-03-08T14:58:31.825Z,6.67
2023-03-08T15:01:35.913Z,7.47
2023-03-08T15:04:37.966Z,7.17
2023-03-08T15:07:40.007Z,7.67
2023-03-08T15:10:42.329Z,7.00
2023-03-08T15:13:46.359Z,6.87
2023-03-08T15:16:48.746Z,6.03
2023-03-08T15:19:50.737Z,7.67
2023-03-08T15:23:04.648Z,8.13
2023-03-08T15:26:07.482Z,6.57
2023-03-08T15:29:31.726Z,6.07
2023-03-08T15:32:33.714Z,6.80
2023-03-08T15:35:38.594Z,6.17
2023-03-08T15:38:40.653Z,5.87
2023-03-08T15:41:44.071Z,5.53
2023-03-08T15:44:46.324Z,5.37
2023-03-08T15:51:04.998Z,5.37
2023-03-08T15:54:07.217Z,4.93
2023-03-08T15:57:09.122Z,4.47
2023-03-08T16:00:16.938Z,5.10
2023-03-08T16:03:26.232Z,6.00
2023-03-08T16:06:28.336Z,6.67
2023-03-08T16:09:30.486Z,5.60
2023-03-08T16:12:32.361Z,6.17
2023-03-08T16:15:34.483Z,6.13
2023-03-08T16:18:37.204Z,5.97
2023-03-08T16:21:39.774Z,6.60
2023-03-08T16:24:41.610Z,6.37
2023-03-08T16:27:43.499Z,6.50
2023-03-08T16:30:45.425Z,6.33
2023-03-08T16:33:47.450Z,6.13
2023-03-08T16:36:49.365Z,5.50
2023-03-08T16:39:52.710Z,6.90
2023-03-08T16:42:54.637Z,5.30
2023-03-08T16:45:59.792Z,6.20
2023-03-08T16:49:01.976Z,5.20
2023-03-08T16:52:04.313Z,5.60
2023-03-08T16:55:07.354Z,5.43
2023-03-08T16:58:09.186Z,4.50
2023-03-08T17:01:12.651Z,5.23
2023-03-08T17:04:14.781Z,5.43
2023-03-08T17:07:17.534Z,4.90
2023-03-08T17:10:19.572Z,5.70
2023-03-08T17:13:21.475Z,5.40
2023-03-08T17:16:29.945Z,5.23
2023-03-08T17:19:33.489Z,5.00
2023-03-08T17:22:35.764Z,5.37
2023-03-08T17:25:40.992Z,3.77
2023-03-08T17:28:43.391Z,3.70
2023-03-08T17:31:45.551Z,4.83
2023-03-08T17:34:47.454Z,4.97
2023-03-08T17:37:50.303Z,4.07
2023-03-08T17:40:52.260Z,4.27
2023-03-08T17:43:54.393Z,4.07
2023-03-08T17:46:56.318Z,4.77
2023-03-08T17:49:58.163Z,4.63
2023-03-08T17:53:01.008Z,3.07
2023-03-08T17:56:25.289Z,3.47
2023-03-08T17:59:27.199Z,3.87
2023-03-08T18:02:29.086Z,3.87
2023-03-08T18:05:31.132Z,3.70
2023-03-08T18:08:34.447Z,4.23
2023-03-08T18:11:38.067Z,4.10
2023-03-08T18:14:40.312Z,4.23
2023-03-08T18:17:42.525Z,3.83
2023-03-08T18:20:44.844Z,4.40
2023-03-08T18:23:48.024Z,4.60
2023-03-08T18:26:50.234Z,5.00
2023-03-08T18:29:52.119Z,4.63
2023-03-08T18:32:53.930Z,5.00
2023-03-08T18:35:57.567Z,4.80
2023-03-08T18:38:59.655Z,4.97
2023-03-08T18:42:02.918Z,4.53
2023-03-08T18:45:08.465Z,4.57
2023-03-08T18:48:10.996Z,4.50
2023-03-08T18:51:13.884Z,4.33
2023-03-08T18:54:20.948Z,3.90
2023-03-08T18:57:22.886Z,3.63
2023-03-08T19:00:24.922Z,3.60
2023-03-08T19:03:27.574Z,3.70
2023-03-08T19:06:29.514Z,2.87
2023-03-08T19:09:31.347Z,3.23
2023-03-08T19:12:34.882Z,3.47
2023-03-08T19:15:40.252Z,2.47
2023-03-08T19:18:42.132Z,2.50
2023-03-08T19:21:46.960Z,4.60
2023-03-08T19:24:49.419Z,3.77
2023-03-08T19:27:51.236Z,2.37
2023-03-08T19:30:53.771Z,2.93
2023-03-08T19:33:55.848Z,3.60
2023-03-08T19:36:58.327Z,2.40
2023-03-08T19:40:01.432Z,2.50
2023-03-08T19:43:03.986Z,2.80
2023-03-08T19:46:07.135Z,2.00
2023-03-08T19:49:13.042Z,2.70
2023-03-08T19:52:14.862Z,3.03
2023-03-08T19:55:16.888Z,3.10
2023-03-08T19:58:19.073Z,3.10
2023-03-08T20:01:21.178Z,2.47
2023-03-08T20:04:23.715Z,2.20
2023-03-08T20:07:26.244Z,3.13
2023-03-08T20:10:28.098Z,2.90
2023-03-08T20:13:30.914Z,2.70
2023-03-08T20:16:32.831Z,1.90
2023-03-08T20:19:36.063Z,1.80
2023-03-08T20:22:38.011Z,2.30
2023-03-08T20:25:40.427Z,1.90
2023-03-08T20:28:42.462Z,2.27
2023-03-08T20:31:46.179Z,2.60
2023-03-08T20:34:48.933Z,2.20
2023-03-08T20:37:53.246Z,2.50
2023-03-08T20:41:04.196Z,2.27
2023-03-08T20:44:06.138Z,3.13
2023-03-08T20:47:08.908Z,2.83
2023-03-08T20:50:11.926Z,2.80
2023-03-08T20:53:18.240Z,2.97
2023-03-08T20:56:21.910Z,2.80
2023-03-08T20:59:27.085Z,2.87
2023-03-08T21:02:29.349Z,2.73
2023-03-08T21:05:34.536Z,3.03
2023-03-08T21:08:36.712Z,2.93
2023-03-08T21:11:38.527Z,3.00
2023-03-08T21:14:40.473Z,3.07
2023-03-08T21:17:42.709Z,3.20
2023-03-08T21:20:45.044Z,3.23
2023-03-08T21:23:47.221Z,2.20
2023-03-08T21:26:53.981Z,2.70
2023-03-08T21:29:57.027Z,2.50
2023-03-08T21:33:00.031Z,2.87
2023-03-08T21:36:02.038Z,3.20
2023-03-08T21:39:05.692Z,2.73
2023-03-08T21:42:07.583Z,3.20
2023-03-08T21:45:10.795Z,3.50
2023-03-08T21:48:12.890Z,2.70
2023-03-08T21:51:16.661Z,2.70
2023-03-08T21:54:19.472Z,2.80
2023-03-08T21:57:22.244Z,3.00
2023-03-08T22:00:24.104Z,3.83
2023-03-08T22:03:26.984Z,3.83
2023-03-08T22:06:29.651Z,3.53
2023-03-08T22:09:31.825Z,2.70
2023-03-08T22:12:33.743Z,2.93
2023-03-08T22:15:35.615Z,3.10
2023-03-08T22:18:37.453Z,2.70
2023-03-08T22:21:39.353Z,2.90
2023-03-08T22:24:41.250Z,2.77
2023-03-08T22:27:43.245Z,2.63
2023-03-08T22:30:45.056Z,2.50
2023-03-08T22:33:47.663Z,3.67
2023-03-08T22:36:49.453Z,5.53
2023-03-08T22:39:51.437Z,9.70
2023-03-08T22:42:53.289Z,3.00
2023-03-08T22:45:55.316Z,2.67
2023-03-08T22:48:59.021Z,2.57
2023-03-08T22:52:00.876Z,4.67
2023-03-08T22:55:03.851Z,8.07
2023-03-08T22:58:05.685Z,2.90
2023-03-08T23:01:13.944Z,2.80
2023-03-08T23:04:15.831Z,2.50
2023-03-08T23:07:17.910Z,2.60
2023-03-08T23:10:19.794Z,4.20
2023-03-08T23:13:33.484Z,3.60
2023-03-08T23:16:37.153Z,4.00
2023-03-08T23:19:39.567Z,4.83
2023-03-08T23:22:43.932Z,2.60
2023-03-08T23:25:46.765Z,5.63
2023-03-08T23:28:48.602Z,3.47
2023-03-08T23:31:50.909Z,5.53
2023-03-08T23:34:53.510Z,7.13
2023-03-08T23:37:55.398Z,3.90
2023-03-08T23:40:57.385Z,3.80
2023-03-08T23:44:01.188Z,9.50
2023-03-08T23:47:03.044Z,4.00
2023-03-08T23:50:05.467Z,2.63
2023-03-08T23:53:07.653Z,2.77
2023-03-08T23:56:27.923Z,2.17
2023-03-08T23:59:29.796Z,2.40
